Time;durP1;ratioP1;P1;durP2;ratioP2;P2;SDS_P1;SDS_P2;PMS_P1;PMS_P2;Temp;Humidity;BMP_temperature;BMP_pressure;BME280_temperature;BME280_humidity;BME280_pressure;Samples;Min_cycle;Max_cycle;Signal;HPM_P1;HPM_P2
2022/04/21 00:00:32;;;;;;;8.52;7.72;;;;;;;4.44;65.06;94981.91;4979778;28;20034;-78
2022/04/21 00:03:06;;;;;;;7.95;7.15;;;;;;;4.46;65.13;94985.09;4998062;28;20486;-78
2022/04/21 00:05:32;;;;;;;7.78;7.00;;;;;;;4.43;65.58;94988.84;4994618;28;20049;-78
2022/04/21 00:07:58;;;;;;;8.45;7.20;;;;;;;4.38;65.52;94982.66;4991677;28;20478;-78
2022/04/21 00:10:23;;;;;;;7.95;7.18;;;;;;;4.27;66.08;94978.84;4977795;28;20062;-77
2022/04/21 00:12:49;;;;;;;8.77;7.57;;;;;;;4.16;66.46;94977.56;4996075;28;20512;-78
2022/04/21 00:15:14;;;;;;;8.07;7.28;;;;;;;4.03;66.50;94974.91;4993760;28;20049;-78
2022/04/21 00:17:40;;;;;;;9.07;8.07;;;;;;;3.91;66.87;94981.56;4995277;28;20037;-79
2022/04/21 00:20:06;;;;;;;8.55;7.80;;;;;;;3.83;67.22;94981.69;4996453;28;20030;-79
2022/04/21 00:25:15;;;;;;;10.15;8.45;;;;;;;3.68;68.09;94994.59;4994154;28;20034;-79
2022/04/21 00:27:42;;;;;;;10.05;8.25;;;;;;;3.66;68.14;94986.28;4993466;28;20035;-79
2022/04/21 00:30:08;;;;;;;10.32;9.18;;;;;;;3.63;68.18;94988.44;4978451;28;20596;-79
2022/04/21 00:32:34;;;;;;;12.18;8.82;;;;;;;3.59;68.96;94983.66;4959773;28;20532;-78
2022/04/21 00:35:00;;;;;;;9.60;8.52;;;;;;;3.60;68.76;94990.41;5007836;28;20509;-78
2022/04/21 00:37:26;;;;;;;13.35;9.65;;;;;;;3.69;68.59;94990.25;4992658;28;20547;-78
2022/04/21 00:39:51;;;;;;;10.10;9.15;;;;;;;3.74;68.21;94993.91;4992732;28;20027;-78
2022/04/21 00:42:17;;;;;;;16.92;9.75;;;;;;;3.82;67.59;95003.25;4976738;28;20030;-78
2022/04/21 00:44:46;;;;;;;10.27;9.02;;;;;;;3.85;67.47;94995.16;5009281;28;20033;-78
2022/04/21 00:47:11;;;;;;;11.48;9.95;;;;;;;3.91;67.44;94994.44;4977948;28;20531;-78
2022/04/21 00:49:37;;;;;;;11.68;9.55;;;;;;;3.99;67.15;94986.56;4998073;28;20512;-78
2022/04/21 00:52:03;;;;;;;10.07;9.07;;;;;;;4.04;66.56;94989.34;4978659;28;20029;-78
2022/04/21 00:54:31;;;;;;;8.43;7.63;;;;;;;4.06;66.52;94982.25;4975884;28;20041;-79
2022/04/21 00:57:13;;;;;;;12.30;9.07;;;;;;;4.10;66.73;94983.47;4977332;28;20045;-79
2022/04/21 00:59:38;;;;;;;11.27;9.50;;;;;;;4.06;67.09;94982.25;4999870;28;20030;-79
2022/04/21 01:04:48;;;;;;;17.98;12.25;;;;;;;4.03;67.85;94981.81;5019515;28;20106;-79
2022/04/21 01:07:13;;;;;;;15.88;12.23;;;;;;;4.04;67.60;94991.94;5018035;28;20038;-79
2022/04/21 01:09:39;;;;;;;18.65;12.80;;;;;;;3.96;66.78;94986.94;5009817;28;20042;-79
2022/04/21 01:12:11;;;;;;;21.95;13.75;;;;;;;3.97;66.75;94983.38;4979408;28;20042;-79
2022/04/21 01:14:39;;;;;;;27.20;14.48;;;;;;;3.98;66.83;94979.81;4992830;28;20061;-79
2022/04/21 01:17:09;;;;;;;22.60;14.23;;;;;;;4.01;65.96;94973.50;4993921;28;20042;-79
2022/04/21 01:19:34;;;;;;;27.35;14.05;;;;;;;4.00;67.06;94967.56;4994086;28;20053;-79
2022/04/21 01:22:00;;;;;;;19.88;13.18;;;;;;;4.00;66.91;94952.13;4994320;28;20026;-79
2022/04/21 01:24:26;;;;;;;17.08;12.27;;;;;;;3.91;66.78;94955.84;4994332;28;20966;-79
2022/04/21 01:26:52;;;;;;;20.73;11.90;;;;;;;3.92;66.62;94952.28;4993887;28;20040;-79
2022/04/21 01:29:18;;;;;;;23.17;14.32;;;;;;;3.93;67.03;94953.88;4977400;28;20077;-79
2022/04/21 01:31:43;;;;;;;32.03;14.75;;;;;;;3.93;67.24;94943.59;4994535;28;20034;-79
2022/04/21 01:34:09;;;;;;;28.52;14.00;;;;;;;3.92;66.55;94945.34;4976291;28;20038;-78
2022/04/21 01:36:35;;;;;;;22.02;15.32;;;;;;;3.95;67.46;94944.19;4992987;28;20069;-78
2022/04/21 01:41:44;;;;;;;22.17;14.80;;;;;;;3.88;66.71;94928.69;4980876;28;20092;-79
2022/04/21 01:44:10;;;;;;;26.75;15.05;;;;;;;3.90;66.69;94938.78;4977962;28;20027;-79
2022/04/21 01:46:35;;;;;;;32.50;16.95;;;;;;;3.89;67.13;94935.41;4994862;28;20026;-80
2022/04/21 01:49:01;;;;;;;27.42;15.48;;;;;;;3.88;67.25;94935.59;4978215;28;20035;-80
2022/04/21 01:51:26;;;;;;;28.48;17.73;;;;;;;3.89;66.39;94938.00;4994424;28;20413;-80
2022/04/21 01:53:52;;;;;;;30.02;20.05;;;;;;;3.85;67.13;94943.69;4994104;28;20034;-80
2022/04/21 01:56:17;;;;;;;30.98;19.77;;;;;;;3.81;67.08;94942.50;5008983;28;20031;-79
2022/04/21 01:58:44;;;;;;;24.02;15.57;;;;;;;3.80;66.73;94936.56;5015658;28;20029;-78
2022/04/21 02:01:10;;;;;;;32.35;18.77;;;;;;;3.82;66.96;94936.38;5011214;28;20042;-79
2022/04/21 02:03:35;;;;;;;32.10;19.55;;;;;;;3.85;66.53;94938.56;5005878;28;20037;-80
2022/04/21 02:06:01;;;;;;;25.17;17.73;;;;;;;3.83;66.90;94940.53;4977096;28;20053;-79
2022/04/21 02:08:29;;;;;;;23.70;16.20;;;;;;;3.83;66.85;94927.66;4995135;28;20046;-79
2022/04/21 02:10:55;;;;;;;22.40;15.30;;;;;;;3.83;66.32;94920.75;4994084;28;20042;-79
2022/04/21 02:13:20;;;;;;;24.85;16.58;;;;;;;3.80;66.87;94928.03;4994283;28;20062;-79
2022/04/21 02:15:46;;;;;;;59.38;29.25;;;;;;;3.71;67.19;94914.50;4960899;28;20019;-79
2022/04/21 02:18:12;;;;;;;47.17;26.35;;;;;;;3.70;67.07;94919.84;4992343;28;20507;-79
2022/04/21 02:20:37;;;;;;;47.85;25.75;;;;;;;3.65;67.24;94917.03;4992640;28;20034;-79
2022/04/21 02:23:02;;;;;;;43.42;25.88;;;;;;;3.68;67.10;94921.81;4976898;28;20165;-79
2022/04/21 02:25:28;;;;;;;45.45;26.08;;;;;;;3.69;66.50;94918.25;4994115;28;20499;-79
2022/04/21 02:27:54;;;;;;;43.22;25.35;;;;;;;3.65;66.56;94932.47;4994417;28;20117;-79
2022/04/21 02:30:25;;;;;;;45.40;25.35;;;;;;;3.60;67.17;94920.19;4994259;28;20026;-79
2022/04/21 02:32:51;;;;;;;29.25;21.60;;;;;;;3.57;66.91;94934.19;4962027;28;20046;-78
2022/04/21 02:35:16;;;;;;;35.35;21.50;;;;;;;3.50;67.54;94937.69;4978824;28;20080;-79
2022/04/21 02:37:44;;;;;;;34.55;22.60;;;;;;;3.51;67.11;94936.72;4980007;28;20039;-78
2022/04/21 02:40:10;;;;;;;38.40;26.90;;;;;;;3.44;67.45;94933.31;4995138;28;20034;-79
2022/04/21 02:42:38;;;;;;;54.70;35.63;;;;;;;3.41;67.51;94937.00;4976723;28;20081;-79
2022/04/21 02:45:05;;;;;;;114.43;83.50;;;;;;;3.38;67.78;94932.25;4994711;28;20463;-79
2022/04/21 02:47:30;;;;;;;118.28;81.18;;;;;;;3.42;67.52;94943.75;4993857;28;20050;-78
2022/04/21 02:49:55;;;;;;;87.90;59.35;;;;;;;3.41;67.25;94937.00;4993493;28;20030;-78
2022/04/21 02:52:21;;;;;;;76.30;47.63;;;;;;;3.42;67.54;94942.97;4974717;28;20494;-78
2022/04/21 02:57:30;;;;;;;57.70;35.22;;;;;;;3.43;67.49;94945.34;4990933;28;20065;-78
2022/04/21 03:00:00;;;;;;;64.85;41.65;;;;;;;3.42;67.46;94941.19;4990731;28;20483;-78
2022/04/21 03:02:25;;;;;;;69.18;46.08;;;;;;;3.38;67.50;94942.53;4990288;28;20034;-78
2022/04/21 03:04:52;;;;;;;80.30;50.17;;;;;;;3.37;67.47;94938.38;4974361;28;20037;-79
2022/04/21 03:07:17;;;;;;;94.78;60.03;;;;;;;3.39;67.53;94938.19;4960337;28;20034;-79
2022/04/21 03:09:43;;;;;;;97.60;58.88;;;;;;;3.32;67.47;94948.41;4991366;28;20050;-79
2022/04/21 03:12:09;;;;;;;102.70;56.17;;;;;;;3.29;67.46;94949.56;4975259;28;20034;-78
2022/04/21 03:14:36;;;;;;;99.70;57.40;;;;;;;3.25;68.11;94942.38;4975064;28;20462;-78
2022/04/21 03:17:02;;;;;;;119.68;70.47;;;;;;;3.24;67.89;94941.59;4959650;28;20031;-79
2022/04/21 03:19:27;;;;;;;123.18;72.50;;;;;;;3.23;67.43;94939.22;4976484;28;20038;-79
2022/04/21 03:24:40;;;;;;;84.53;53.08;;;;;;;3.20;68.25;94934.44;4992803;28;20150;-79
2022/04/21 03:27:05;;;;;;;35.45;23.10;;;;;;;3.22;68.15;94924.78;5009125;28;20046;-79
2022/04/21 03:29:40;;;;;;;25.08;16.63;;;;;;;3.21;68.17;94938.59;4992697;28;20027;-78
2022/04/21 03:32:13;;;;;;;47.50;28.65;;;;;;;3.24;68.31;94935.66;4977192;28;20960;-79
2022/04/21 03:34:42;;;;;;;34.47;22.10;;;;;;;3.29;68.09;94933.34;4977787;28;20034;-79
2022/04/21 03:37:12;;;;;;;26.98;19.67;;;;;;;3.28;67.94;94939.47;4960950;28;20049;-79
2022/04/21 03:39:38;;;;;;;65.03;37.95;;;;;;;3.29;67.94;94943.63;4992498;28;20045;-78
2022/04/21 03:42:07;;;;;;;76.88;41.60;;;;;;;3.37;68.14;94940.13;4976335;28;20030;-78
2022/04/21 03:44:33;;;;;;;72.72;41.22;;;;;;;3.42;67.05;94933.47;4992418;28;20034;-79
2022/04/21 03:46:59;;;;;;;67.72;40.05;;;;;;;3.51;67.17;94936.72;4992736;28;20037;-79
2022/04/21 03:49:29;;;;;;;66.60;39.38;;;;;;;3.54;67.21;94931.19;4993399;28;20026;-79
2022/04/21 03:51:55;;;;;;;77.53;42.88;;;;;;;3.61;67.23;94922.56;4977134;28;20066;-79
2022/04/21 03:54:22;;;;;;;69.18;41.75;;;;;;;3.69;66.71;94924.19;4996334;28;20041;-79
2022/04/21 03:56:48;;;;;;;77.50;48.30;;;;;;;3.85;66.71;94930.84;4976954;28;20062;-78
2022/04/21 03:59:13;;;;;;;81.70;46.53;;;;;;;4.17;65.82;94932.84;4992316;28;20033;-78
2022/04/21 04:01:40;;;;;;;77.43;43.45;;;;;;;4.51;64.81;94933.81;4979980;28;20076;-78
2022/04/21 04:04:06;;;;;;;115.45;62.22;;;;;;;4.94;64.12;94934.38;4995643;28;20040;-79
2022/04/21 04:11:59;;;;;;;132.85;81.93;;;;;;;5.83;60.21;94939.25;4993963;28;20053;-78
2022/04/21 04:14:25;;;;;;;133.38;85.97;;;;;;;6.01;60.19;94941.28;4978110;28;20034;-78
2022/04/21 04:16:52;;;;;;;143.02;85.43;;;;;;;6.28;59.97;94931.72;4979318;28;20038;-79
2022/04/21 04:19:17;;;;;;;108.35;68.13;;;;;;;6.99;55.55;94942.00;4979715;28;20030;-78
2022/04/21 04:21:43;;;;;;;76.05;49.03;;;;;;;7.86;53.04;94931.94;4997429;28;20042;-79
2022/04/21 04:24:08;;;;;;;81.25;44.45;;;;;;;8.34;52.42;94927.75;5013219;28;20156;-79
2022/04/21 04:26:34;;;;;;;62.80;36.30;;;;;;;9.20;50.75;94920.75;4965820;28;20046;-79
2022/04/21 04:29:00;;;;;;;40.95;26.40;;;;;;;9.85;48.70;94913.00;4981724;28;20580;-79
2022/04/21 04:31:25;;;;;;;48.63;31.70;;;;;;;10.03;47.06;94914.72;5013893;28;20541;-79
2022/04/21 04:33:51;;;;;;;54.72;33.15;;;;;;;9.86;47.13;94915.38;4996611;28;20034;-79
2022/04/21 04:36:16;;;;;;;43.88;25.83;;;;;;;9.88;48.45;94912.56;5012819;28;20030;-78
2022/04/21 04:38:48;;;;;;;45.40;25.38;;;;;;;10.40;46.98;94910.09;4998584;28;20041;-78
2022/04/21 04:43:58;;;;;;;30.98;21.52;;;;;;;10.62;45.96;94918.91;4984477;28;20064;-78
2022/04/21 04:46:35;;;;;;;34.50;21.80;;;;;;;10.33;47.03;94930.22;4994762;28;20482;-79
2022/04/21 04:49:06;;;;;;;39.30;24.33;;;;;;;10.18;47.11;94923.66;4999014;28;20039;-79
2022/04/21 04:51:32;;;;;;;28.75;19.98;;;;;;;10.00;47.63;94926.34;4998882;28;20098;-78
2022/04/21 04:53:58;;;;;;;29.38;18.98;;;;;;;9.95;47.53;94931.44;4982017;28;20035;-81
2022/04/21 04:56:29;;;;;;;31.60;21.15;;;;;;;9.80;48.97;94931.88;4983367;28;20049;-79
2022/04/21 04:58:55;;;;;;;32.05;20.60;;;;;;;9.83;49.03;94941.81;5013609;28;20022;-79
2022/04/21 05:01:45;;;;;;;39.20;22.50;;;;;;;10.19;48.10;94925.22;5014077;28;20038;-79
2022/04/21 05:04:19;;;;;;;35.67;21.23;;;;;;;10.58;47.32;94937.81;4996333;28;20132;-79
2022/04/21 05:06:52;;;;;;;36.63;20.52;;;;;;;11.69;44.71;94932.06;4997018;28;20073;-79
2022/04/21 05:09:19;;;;;;;36.97;20.02;;;;;;;11.82;44.52;94930.22;4999984;28;20031;-79
2022/04/21 05:11:50;;;;;;;27.60;17.83;;;;;;;11.98;44.57;94932.84;4998934;28;20474;-79
2022/04/21 05:14:17;;;;;;;26.73;17.30;;;;;;;12.07;43.48;94938.47;4997907;28;20035;-78
2022/04/21 05:16:42;;;;;;;24.38;17.23;;;;;;;11.83;43.78;94937.81;4997600;28;20042;-78
2022/04/21 05:19:13;;;;;;;27.38;17.35;;;;;;;11.79;43.94;94944.53;4997274;28;20116;-78
2022/04/21 05:21:40;;;;;;;28.88;21.35;;;;;;;12.46;43.63;94949.72;4998242;28;20061;-79
2022/04/21 05:24:06;;;;;;;34.72;21.73;;;;;;;12.66;43.20;94943.19;4997358;28;20038;-79
2022/04/21 05:26:32;;;;;;;30.08;20.67;;;;;;;12.69;42.82;94948.72;4998199;28;20022;-78
2022/04/21 05:28:59;;;;;;;33.90;19.88;;;;;;;12.85;42.84;94939.25;4981081;28;20038;-79
2022/04/21 05:31:26;;;;;;;26.65;18.83;;;;;;;13.31;41.13;94943.22;4998581;28;20451;-79
2022/04/21 05:33:52;;;;;;;29.48;18.23;;;;;;;14.47;39.87;94947.09;4980734;28;20042;-78
2022/04/21 05:36:17;;;;;;;28.88;17.67;;;;;;;15.68;36.58;94940.81;4997055;28;20081;-79
2022/04/21 05:38:43;;;;;;;19.55;14.45;;;;;;;16.43;34.03;94937.41;4996973;28;20034;-79
2022/04/21 05:41:09;;;;;;;23.08;13.75;;;;;;;16.92;32.73;94934.19;4997942;28;20030;-79
2022/04/21 05:43:39;;;;;;;20.48;14.57;;;;;;;17.25;32.30;94926.69;4997177;28;20030;-80
2022/04/21 05:46:05;;;;;;;16.05;13.00;;;;;;;16.86;32.61;94929.19;4996380;28;20034;-78
2022/04/21 05:48:30;;;;;;;16.30;13.60;;;;;;;16.57;33.72;94924.50;4980467;28;20031;-79
2022/04/21 05:50:56;;;;;;;15.77;11.98;;;;;;;16.49;33.33;94919.81;4998160;28;20034;-79
2022/04/21 05:53:22;;;;;;;14.07;11.23;;;;;;;16.23;33.74;94923.50;4980368;28;20041;-79
2022/04/21 05:55:48;;;;;;;13.43;11.80;;;;;;;15.99;34.00;94910.94;4979954;28;20034;-78
2022/04/21 05:58:14;;;;;;;18.33;12.80;;;;;;;16.05;34.16;94920.38;4997197;28;20089;-79
2022/04/21 06:00:39;;;;;;;18.65;12.55;;;;;;;16.24;33.25;94922.44;4997585;28;20425;-79
2022/04/21 06:03:05;;;;;;;16.58;12.48;;;;;;;15.65;34.25;94917.75;4995809;28;20042;-79
2022/04/21 06:05:31;;;;;;;18.02;13.77;;;;;;;14.96;35.00;94919.59;4980131;28;20100;-79
2022/04/21 06:07:56;;;;;;;17.90;14.20;;;;;;;14.24;36.98;94917.63;4980554;28;20031;-80
2022/04/21 06:10:22;;;;;;;16.35;13.52;;;;;;;13.56;37.93;94919.19;4995940;28;20045;-79
2022/04/21 06:12:49;;;;;;;22.35;15.10;;;;;;;12.97;38.98;94919.03;4997215;28;20046;-78
2022/04/21 06:15:14;;;;;;;22.00;14.60;;;;;;;12.82;39.66;94922.25;4994761;28;20084;-79
2022/04/21 06:17:39;;;;;;;22.83;14.68;;;;;;;12.57;39.98;94925.34;4996695;28;20026;-78
2022/04/21 06:20:11;;;;;;;19.70;13.77;;;;;;;12.21;40.83;94933.72;4979321;28;20042;-78
2022/04/21 06:22:36;;;;;;;18.52;14.15;;;;;;;12.03;41.32;94930.31;4996239;28;20038;-78
2022/04/21 06:25:02;;;;;;;19.30;14.57;;;;;;;11.79;42.21;94923.69;4995485;28;20057;-78
2022/04/21 06:27:28;;;;;;;21.90;15.20;;;;;;;11.51;42.56;94926.28;4979252;28;20090;-79
2022/04/21 06:29:53;;;;;;;19.17;15.73;;;;;;;11.43;42.91;94923.06;4995653;28;20128;-78
2022/04/21 06:32:18;;;;;;;25.20;15.90;;;;;;;11.26;43.02;94921.44;4962229;28;20026;-79
2022/04/21 06:34:44;;;;;;;22.98;15.93;;;;;;;11.02;44.31;94923.31;4995249;28;20042;-78
2022/04/21 06:37:09;;;;;;;27.60;16.52;;;;;;;10.87;44.74;94920.41;4994620;28;20043;-79
2022/04/21 06:39:35;;;;;;;29.67;17.17;;;;;;;10.82;44.99;94929.72;4996580;28;20042;-79
2022/04/21 06:42:00;;;;;;;24.10;17.50;;;;;;;10.62;45.67;94918.91;4994756;28;20031;-78
2022/04/21 06:49:54;;;;;;;24.17;17.13;;;;;;;10.43;46.44;94925.25;4977717;28;20053;-78
2022/04/21 06:52:19;;;;;;;21.73;16.52;;;;;;;10.51;46.07;94922.31;4975665;28;20030;-78
2022/04/21 06:54:45;;;;;;;20.33;16.38;;;;;;;10.51;46.22;94922.31;4959707;28;20529;-79
2022/04/21 06:57:17;;;;;;;22.17;15.52;;;;;;;10.67;45.97;94920.81;4993271;28;20042;-79
2022/04/21 06:59:42;;;;;;;23.20;16.25;;;;;;;10.80;45.43;94920.56;4991840;28;20041;-78
2022/04/21 07:02:09;;;;;;;28.40;15.98;;;;;;;11.00;45.78;94920.16;4993722;28;20474;-79
2022/04/21 07:04:35;;;;;;;23.60;15.48;;;;;;;11.23;44.60;94925.31;4963115;28;20252;-79
2022/04/21 07:07:00;;;;;;;20.15;14.95;;;;;;;11.34;44.40;94927.03;4996049;28;20034;-79
2022/04/21 07:09:26;;;;;;;25.80;16.77;;;;;;;11.37;44.70;94931.00;4996047;28;20022;-79
2022/04/21 07:11:51;;;;;;;21.13;15.85;;;;;;;11.38;44.37;94922.94;4980805;28;20426;-79
2022/04/21 07:14:17;;;;;;;21.13;15.38;;;;;;;11.50;43.96;94929.91;4980360;28;20031;-79
2022/04/21 07:16:43;;;;;;;20.23;15.50;;;;;;;11.41;43.48;94929.53;4996337;28;20083;-78
2022/04/21 07:19:08;;;;;;;18.40;15.18;;;;;;;11.56;43.76;94934.22;4997384;28;20089;-79
2022/04/21 07:21:34;;;;;;;18.25;14.88;;;;;;;11.55;43.49;94932.59;4998276;28;20037;-79
2022/04/21 07:26:30;;;;;;;18.98;14.52;;;;;;;11.67;43.50;94941.16;5003336;28;20038;-79
2022/04/21 07:28:56;;;;;;;23.92;15.70;;;;;;;11.68;43.02;94938.31;5004078;28;20111;-79
2022/04/21 07:31:22;;;;;;;26.90;16.23;;;;;;;11.54;44.16;94951.84;4967646;28;20114;-80
2022/04/21 07:33:47;;;;;;;19.17;15.30;;;;;;;11.69;44.17;94957.34;4976644;28;20105;-79
2022/04/21 07:36:13;;;;;;;25.40;17.00;;;;;;;11.91;43.69;94954.88;4997394;28;20445;-80
2022/04/21 07:38:38;;;;;;;25.60;16.80;;;;;;;12.19;42.77;94959.22;4988390;28;20057;-78
2022/04/21 07:41:04;;;;;;;30.30;16.05;;;;;;;12.31;42.25;94952.09;4977803;28;20060;-79
2022/04/21 07:43:32;;;;;;;30.88;17.23;;;;;;;12.51;41.87;94948.97;4999915;28;20041;-79
2022/04/21 07:45:57;;;;;;;20.50;16.13;;;;;;;12.58;42.13;94944.41;4999157;28;20038;-79
2022/04/21 07:48:23;;;;;;;20.40;15.70;;;;;;;12.73;42.32;94949.03;4966692;28;20041;-79
2022/04/21 07:50:49;;;;;;;31.52;16.92;;;;;;;13.12;41.95;94937.50;4966692;28;20034;-79
2022/04/21 07:53:15;;;;;;;28.25;16.50;;;;;;;13.42;40.19;94947.53;4980297;28;20038;-79
2022/04/21 07:55:45;;;;;;;20.13;16.20;;;;;;;13.66;41.08;94940.16;4978587;28;20034;-79
2022/04/21 07:58:11;;;;;;;28.05;17.67;;;;;;;13.76;40.08;94937.66;4997580;28;20422;-79
2022/04/21 08:00:38;;;;;;;24.52;17.65;;;;;;;13.79;40.86;94934.53;5000289;28;20045;-79
2022/04/21 08:03:07;;;;;;;27.15;18.33;;;;;;;13.87;39.41;94942.97;4967440;28;20580;-79
2022/04/21 08:05:32;;;;;;;25.60;15.18;;;;;;;14.05;38.73;94934.75;4999801;28;20402;-78
2022/04/21 08:08:03;;;;;;;19.90;14.57;;;;;;;14.06;37.80;94936.34;4999958;28;20041;-79
2022/04/21 08:10:29;;;;;;;24.50;14.85;;;;;;;14.27;38.09;94935.44;5000389;28;20116;-78
2022/04/21 08:12:57;;;;;;;23.80;15.45;;;;;;;14.37;38.00;94927.66;5001292;28;20035;-79
2022/04/21 08:15:30;;;;;;;19.88;14.95;;;;;;;14.52;37.93;94934.06;4982301;28;20035;-79
2022/04/21 08:18:05;;;;;;;24.58;15.68;;;;;;;14.53;37.75;94940.88;4967917;28;20038;-79
2022/04/21 08:20:31;;;;;;;19.55;14.80;;;;;;;14.41;37.64;94933.97;4983399;28;20034;-80
2022/04/21 08:22:57;;;;;;;21.20;14.40;;;;;;;14.34;38.04;94937.84;4983199;28;20116;-79
2022/04/21 08:33:36;;;;;;;20.02;15.38;;;;;;;14.61;37.44;94938.56;4999224;28;20109;-79
2022/04/21 08:36:02;;;;;;;32.67;16.17;;;;;;;14.69;36.98;94930.22;4998704;28;20527;-79
2022/04/21 08:38:28;;;;;;;22.70;15.82;;;;;;;14.89;37.34;94937.38;4965483;28;20061;-79
2022/04/21 08:40:55;;;;;;;29.48;14.27;;;;;;;15.04;36.85;94935.88;4965243;28;20038;-78
2022/04/21 08:43:23;;;;;;;21.75;15.68;;;;;;;15.10;37.12;94924.38;4965795;28;20041;-79
2022/04/21 08:45:49;;;;;;;18.42;14.73;;;;;;;15.16;36.95;94928.59;4965058;28;20043;-80
2022/04/21 08:48:17;;;;;;;29.98;16.15;;;;;;;14.80;37.08;94931.06;4981445;28;20030;-79
2022/04/21 08:50:45;;;;;;;25.55;16.42;;;;;;;14.70;37.71;94925.78;4981478;28;20031;-80
2022/04/21 08:53:14;;;;;;;24.75;16.70;;;;;;;14.68;36.95;94920.81;4981125;28;20038;-82
2022/04/21 08:55:40;;;;;;;31.02;17.20;;;;;;;14.75;37.34;94912.72;4966114;28;20037;-79
2022/04/21 08:58:05;;;;;;;27.35;16.77;;;;;;;14.81;36.86;94910.94;4984285;28;20027;-79
2022/04/21 09:00:31;;;;;;;23.02;16.90;;;;;;;14.85;37.08;94912.78;4999834;28;20089;-79
2022/04/21 09:02:57;;;;;;;22.60;16.55;;;;;;;14.67;37.30;94915.84;4996606;28;20046;-78
2022/04/21 09:05:26;;;;;;;29.23;18.40;;;;;;;14.73;37.49;94899.09;5015039;28;20029;-77
2022/04/21 09:07:52;;;;;;;29.70;16.42;;;;;;;14.70;37.13;94910.09;5010147;28;20044;-79
2022/04/21 09:10:25;;;;;;;28.05;17.58;;;;;;;14.28;38.16;94910.06;4997014;28;20088;-79
2022/04/21 09:12:55;;;;;;;28.38;17.95;;;;;;;14.27;38.32;94908.50;4997182;28;20145;-80
2022/04/21 09:15:25;;;;;;;27.77;18.40;;;;;;;14.13;38.65;94914.16;4997190;28;20038;-79
2022/04/21 09:17:58;;;;;;;25.77;16.38;;;;;;;14.13;39.04;94903.69;4980400;28;20034;-79
2022/04/21 09:20:33;;;;;;;27.48;18.25;;;;;;;14.16;38.94;94904.25;4964617;28;20038;-78
2022/04/21 09:23:04;;;;;;;23.00;17.45;;;;;;;14.25;38.53;94892.25;4978408;28;20457;-80
2022/04/21 09:25:53;;;;;;;31.55;18.60;;;;;;;14.26;38.59;94902.47;4963075;28;20035;-79
2022/04/21 09:28:25;;;;;;;28.80;17.77;;;;;;;14.22;39.08;94908.47;4977193;28;20049;-81
2022/04/21 09:30:52;;;;;;;22.40;16.38;;;;;;;14.29;39.45;94912.41;4979722;28;20556;-80
2022/04/21 09:33:28;;;;;;;25.92;16.83;;;;;;;13.98;39.59;94908.03;4981038;28;20086;-80
2022/04/21 09:35:55;;;;;;;29.85;17.55;;;;;;;13.90;40.55;94916.34;4979280;28;20042;-79
2022/04/21 09:38:21;;;;;;;24.05;16.80;;;;;;;13.64;40.85;94913.50;4998016;28;20469;-80
2022/04/21 09:40:47;;;;;;;30.52;17.48;;;;;;;13.58;41.12;94914.50;4964115;28;20030;-80
2022/04/21 09:43:13;;;;;;;27.52;17.92;;;;;;;13.78;40.62;94909.44;4997933;28;20583;-80
2022/04/21 09:48:29;;;;;;;24.95;17.67;;;;;;;14.01;40.40;94907.53;4998110;28;20057;-79
2022/04/21 09:51:06;;;;;;;27.98;17.10;;;;;;;14.04;40.19;94913.06;4997437;28;20046;-79
2022/04/21 09:53:32;;;;;;;26.27;16.98;;;;;;;13.21;41.89;94909.97;4976400;28;20034;-80
2022/04/21 09:56:10;;;;;;;26.42;18.55;;;;;;;12.46;43.82;94913.19;4964275;28;20045;-79
2022/04/21 09:58:43;;;;;;;27.73;18.05;;;;;;;12.65;44.06;94916.31;4963767;28;20113;-79
2022/04/21 10:01:08;;;;;;;29.75;19.65;;;;;;;12.85;43.11;94913.97;4964967;28;20046;-79
2022/04/21 10:03:34;;;;;;;32.20;18.25;;;;;;;12.95;43.57;94902.06;4980366;28;20076;-79
2022/04/21 10:06:00;;;;;;;28.75;17.55;;;;;;;12.62;44.02;94904.53;4974350;28;20030;-79
2022/04/21 10:08:26;;;;;;;23.58;16.63;;;;;;;12.64;43.98;94912.13;4982621;28;20034;-80
2022/04/21 10:10:51;;;;;;;33.33;18.13;;;;;;;12.70;43.77;94894.72;4981594;28;20034;-79
2022/04/21 10:13:17;;;;;;;27.77;16.98;;;;;;;12.99;43.80;94893.50;4965605;28;20088;-79
2022/04/21 10:15:43;;;;;;;38.47;20.02;;;;;;;13.26;43.66;94890.16;4963815;28;20026;-79
2022/04/21 10:18:11;;;;;;;34.22;19.10;;;;;;;13.40;42.34;94892.13;4980856;28;20077;-82
2022/04/21 10:20:36;;;;;;;34.35;19.38;;;;;;;13.26;42.74;94885.72;4965978;28;20042;-81
2022/04/21 10:23:02;;;;;;;35.63;19.27;;;;;;;13.49;42.18;94885.41;5003578;28;20035;-81
2022/04/21 10:25:33;;;;;;;30.15;18.45;;;;;;;13.59;42.33;94889.94;5005030;28;20088;-81
2022/04/21 10:28:26;;;;;;;26.92;18.58;;;;;;;13.80;42.16;94888.28;4972819;28;20061;-81
2022/04/21 10:30:51;;;;;;;26.48;19.45;;;;;;;13.89;41.16;94878.94;4997354;28;20438;-81
2022/04/21 10:33:17;;;;;;;37.30;20.63;;;;;;;13.77;42.06;94889.56;5003118;28;20038;-80
2022/04/21 10:35:45;;;;;;;29.75;20.48;;;;;;;13.80;41.28;94891.69;4972186;28;20030;-81
2022/04/21 10:38:14;;;;;;;39.75;21.35;;;;;;;13.47;42.30;94886.69;4990621;28;20053;-81
2022/04/21 10:41:03;;;;;;;28.23;20.13;;;;;;;12.98;44.09;94891.13;4993994;28;20030;-81
2022/04/21 10:43:48;;;;;;;38.05;20.33;;;;;;;12.53;45.39;94882.53;4990350;28;20038;-81
2022/04/21 10:46:21;;;;;;;35.72;21.98;;;;;;;12.67;45.72;94876.94;4995226;28;20045;-80
2022/04/21 10:48:46;;;;;;;33.15;20.38;;;;;;;12.98;44.66;94883.28;4978312;28;20026;-80
2022/04/21 10:51:12;;;;;;;41.17;21.73;;;;;;;13.11;44.79;94880.31;4977153;28;20034;-81
2022/04/21 10:59:29;;;;;;;35.47;21.50;;;;;;;12.49;45.94;94881.41;5012959;28;20065;-80
2022/04/21 11:01:55;;;;;;;37.33;22.25;;;;;;;12.14;46.94;94873.13;4990433;28;20036;-81
2022/04/21 11:04:21;;;;;;;33.38;22.42;;;;;;;12.43;46.95;94876.38;4992645;28;20034;-81
2022/04/21 11:07:09;;;;;;;42.90;24.48;;;;;;;12.76;46.24;94865.06;4974330;28;20063;-82
2022/04/21 11:09:38;;;;;;;32.33;21.25;;;;;;;13.09;45.36;94869.31;5005335;28;20070;-81
2022/04/21 11:12:05;;;;;;;44.75;22.35;;;;;;;13.11;44.99;94868.03;5006175;28;20054;-81
2022/04/21 11:14:32;;;;;;;31.25;21.42;;;;;;;13.18;44.88;94871.28;5010233;28;20045;-81
2022/04/21 11:16:58;;;;;;;37.10;22.40;;;;;;;13.13;44.55;94873.81;4992113;28;20045;-80
2022/04/21 11:19:34;;;;;;;44.72;22.58;;;;;;;13.31;44.74;94871.91;4976529;28;20065;-80
2022/04/21 11:22:00;;;;;;;38.95;23.88;;;;;;;13.40;44.19;94883.50;5009879;28;20085;-81
2022/04/21 11:24:26;;;;;;;38.70;24.10;;;;;;;13.39;44.04;94871.47;5000895;28;20034;-81
2022/04/21 11:26:58;;;;;;;40.22;23.33;;;;;;;13.50;43.96;94867.91;4990629;28;20477;-81
2022/04/21 11:29:24;;;;;;;41.55;24.40;;;;;;;13.57;44.31;94871.13;4991563;28;20030;-79
2022/04/21 11:31:57;;;;;;;34.97;23.73;;;;;;;13.48;44.09;94867.38;4992737;28;20421;-80
2022/04/21 11:34:24;;;;;;;34.28;24.23;;;;;;;13.43;44.48;94864.72;5010181;28;20042;-81
2022/04/21 11:36:53;;;;;;;43.72;23.63;;;;;;;13.36;45.18;94858.91;5001001;28;20045;-80
2022/04/21 11:39:19;;;;;;;35.97;23.85;;;;;;;13.49;44.87;94853.28;4959045;28;20034;-81
2022/04/21 11:41:46;;;;;;;43.38;24.42;;;;;;;13.38;45.07;94849.00;4977315;28;20046;-80
2022/04/21 11:44:11;;;;;;;39.40;23.65;;;;;;;13.25;45.01;94841.56;5010288;28;20034;-81
2022/04/21 11:46:39;;;;;;;35.92;23.83;;;;;;;13.29;45.22;94842.66;5009790;28;20053;-81
2022/04/21 11:49:04;;;;;;;38.92;23.98;;;;;;;13.26;45.72;94853.59;4976844;28;20026;-81
2022/04/21 11:51:30;;;;;;;44.78;23.83;;;;;;;13.40;45.87;94845.13;4975898;28;20034;-81
2022/04/21 11:53:56;;;;;;;38.13;23.17;;;;;;;13.55;45.27;94836.63;4976779;28;20094;-81
2022/04/21 11:56:22;;;;;;;52.95;25.20;;;;;;;13.54;45.94;94829.03;4976598;28;20490;-81
2022/04/21 11:58:47;;;;;;;40.60;23.25;;;;;;;13.50;45.40;94833.94;4973395;28;20076;-82
2022/04/21 12:06:49;;;;;;;42.25;22.92;;;;;;;13.59;45.16;94831.69;4994859;28;20150;-81
2022/04/21 12:09:15;;;;;;;38.25;22.17;;;;;;;13.48;45.16;94822.97;4992026;28;20565;-81
2022/04/21 12:11:42;;;;;;;37.13;24.00;;;;;;;13.40;45.72;94826.03;4974973;28;20516;-81
2022/04/21 12:14:08;;;;;;;40.95;22.75;;;;;;;13.58;45.50;94825.66;4975579;28;20034;-81